createdAt,value
2023-03-15T00:00:42.515Z,1.00
2023-03-15T00:03:10.763Z,1.10
2023-03-15T00:05:38.812Z,1.10
2023-03-15T00:08:07.176Z,1.00
2023-03-15T00:10:35.228Z,0.90
2023-03-15T00:13:03.303Z,0.90
2023-03-15T00:15:32.731Z,1.00
2023-03-15T00:18:03.267Z,0.90
2023-03-15T00:20:31.353Z,1.00
2023-03-15T00:22:59.423Z,0.90
2023-03-15T00:25:27.544Z,0.90
2023-03-15T00:27:55.632Z,0.90
2023-03-15T00:30:23.654Z,0.90
2023-03-15T00:32:54.995Z,0.90
2023-03-15T00:35:24.048Z,0.90
2023-03-15T00:37:55.527Z,0.80
2023-03-15T00:40:23.634Z,0.80
2023-03-15T00:42:52.310Z,0.80
2023-03-15T00:45:20.740Z,0.80
2023-03-15T00:47:50.304Z,0.90
2023-03-15T00:50:19.936Z,0.80
2023-03-15T00:52:48.043Z,0.80
2023-03-15T00:55:17.448Z,0.80
2023-03-15T00:57:46.515Z,0.80
2023-03-15T01:00:16.470Z,0.80
2023-03-15T01:02:44.739Z,0.70
2023-03-15T01:05:14.253Z,0.80
2023-03-15T01:07:45.727Z,0.80
2023-03-15T01:10:13.974Z,0.80
2023-03-15T01:12:42.105Z,0.80
2023-03-15T01:15:13.066Z,0.80
2023-03-15T01:17:41.199Z,0.70
2023-03-15T01:20:10.642Z,0.80
2023-03-15T01:22:38.723Z,0.80
2023-03-15T01:25:10.610Z,0.70
2023-03-15T01:27:38.858Z,0.70
2023-03-15T01:30:07.905Z,0.70
2023-03-15T01:32:36.042Z,0.70
2023-03-15T01:35:04.140Z,0.60
2023-03-15T01:37:33.815Z,0.70
2023-03-15T01:40:01.928Z,0.70
2023-03-15T01:42:32.530Z,0.70
2023-03-15T01:45:01.018Z,0.70
2023-03-15T01:47:29.373Z,0.70
2023-03-15T01:50:01.719Z,0.70
2023-03-15T01:52:34.207Z,0.70
2023-03-15T01:55:06.301Z,0.70
2023-03-15T01:57:37.474Z,0.70
2023-03-15T02:00:11.889Z,0.70
2023-03-15T02:03:14.600Z,0.70
2023-03-15T02:05:46.630Z,0.70
2023-03-15T02:08:22.354Z,0.70
2023-03-15T02:10:52.004Z,0.70
2023-03-15T02:13:23.848Z,0.70
2023-03-15T02:15:53.654Z,0.70
2023-03-15T02:18:27.484Z,0.60
2023-03-15T02:21:00.435Z,0.70
2023-03-15T02:23:28.721Z,0.70
2023-03-15T02:25:59.026Z,0.70
2023-03-15T02:28:30.568Z,0.60
2023-03-15T02:30:58.687Z,0.60
2023-03-15T02:33:27.385Z,0.60
2023-03-15T02:35:55.578Z,0.60
2023-03-15T02:38:23.752Z,0.70
2023-03-15T02:40:52.203Z,0.60
2023-03-15T02:43:21.289Z,0.60
2023-03-15T02:45:50.784Z,0.60
2023-03-15T02:48:18.896Z,0.60
2023-03-15T02:50:46.939Z,0.60
2023-03-15T02:53:16.102Z,0.60
2023-03-15T02:55:44.166Z,0.60
2023-03-15T02:58:12.276Z,0.60
2023-03-15T03:00:40.381Z,0.60
2023-03-15T03:03:09.991Z,0.60
2023-03-15T03:05:38.057Z,0.60
2023-03-15T03:08:06.875Z,0.60
2023-03-15T03:10:35.855Z,0.50
2023-03-15T03:13:04.034Z,0.50
2023-03-15T03:15:35.576Z,0.50
2023-03-15T03:18:03.837Z,0.50
2023-03-15T03:20:33.494Z,0.50
2023-03-15T03:23:06.476Z,0.50
2023-03-15T03:25:36.710Z,0.60
2023-03-15T03:28:04.924Z,0.50
2023-03-15T03:30:35.913Z,0.50
2023-03-15T03:33:04.506Z,0.50
2023-03-15T03:35:34.358Z,0.50
2023-03-15T03:38:02.428Z,0.50
2023-03-15T03:40:36.009Z,0.40
2023-03-15T03:43:06.009Z,0.40
2023-03-15T03:45:34.231Z,0.50
2023-03-15T03:48:02.851Z,0.50
2023-03-15T03:50:34.229Z,0.50
2023-03-15T03:53:02.317Z,0.50
2023-03-15T03:55:34.426Z,0.40
2023-03-15T03:58:02.503Z,0.40
2023-03-15T04:00:41.828Z,0.50
2023-03-15T04:03:10.882Z,0.30
2023-03-15T04:05:42.995Z,0.40
2023-03-15T04:08:14.086Z,0.40
2023-03-15T04:10:42.150Z,0.40
2023-03-15T04:13:11.491Z,0.30
2023-03-15T04:15:39.724Z,0.30
2023-03-15T04:18:08.844Z,0.30
2023-03-15T04:20:46.968Z,0.30
2023-03-15T04:23:16.387Z,0.30
2023-03-15T04:25:58.082Z,0.30
2023-03-15T04:28:59.154Z,0.30
2023-03-15T04:31:47.464Z,0.30
2023-03-15T04:34:28.467Z,0.30
2023-03-15T04:37:18.179Z,0.30
2023-03-15T04:39:57.720Z,0.20
2023-03-15T04:42:47.795Z,0.30
2023-03-15T04:45:44.758Z,0.20
2023-03-15T04:48:42.342Z,0.20
2023-03-15T04:51:30.638Z,0.20
2023-03-15T04:54:27.447Z,0.10
2023-03-15T04:57:21.647Z,0.10
2023-03-15T05:00:02.544Z,0.10
2023-03-15T05:02:40.013Z,0.10
2023-03-15T05:05:34.257Z,0.20
2023-03-15T05:08:40.694Z,0.20
2023-03-15T05:11:28.473Z,0.20
2023-03-15T05:14:14.835Z,0.20
2023-03-15T05:17:04.136Z,0.20
2023-03-15T05:19:47.193Z,0.20
2023-03-15T05:22:41.377Z,0.20
2023-03-15T05:25:41.239Z,0.20
2023-03-15T05:28:29.414Z,0.20
2023-03-15T05:31:17.101Z,0.20
2023-03-15T05:34:09.356Z,0.10
2023-03-15T05:36:47.031Z,0.10
2023-03-15T05:39:35.731Z,0.10
2023-03-15T05:42:15.047Z,0.20
2023-03-15T05:45:09.177Z,0.20
2023-03-15T05:48:03.104Z,0.20
2023-03-15T05:50:54.585Z,0.20
2023-03-15T05:53:40.431Z,0.30
2023-03-15T05:56:27.228Z,0.30
2023-03-15T05:59:13.714Z,0.30
2023-03-15T06:02:12.736Z,0.30
2023-03-15T06:04:48.491Z,0.30
2023-03-15T06:07:21.258Z,0.40
2023-03-15T06:09:49.534Z,0.40
2023-03-15T06:12:17.606Z,0.40
2023-03-15T06:14:45.685Z,0.40
2023-03-15T06:17:15.104Z,0.40
2023-03-15T06:19:45.406Z,0.50
2023-03-15T06:22:13.631Z,0.60
2023-03-15T06:24:48.861Z,0.70
2023-03-15T06:27:17.012Z,0.80
2023-03-15T06:29:45.086Z,0.80
2023-03-15T06:32:14.792Z,0.80
2023-03-15T06:34:43.666Z,0.80
2023-03-15T06:37:16.312Z,0.80
2023-03-15T06:39:51.111Z,0.90
2023-03-15T06:42:19.278Z,1.00
2023-03-15T06:44:47.343Z,1.10
2023-03-15T06:47:17.126Z,1.10
2023-03-15T06:49:45.333Z,1.20
2023-03-15T06:52:14.666Z,1.20
2023-03-15T06:54:42.723Z,1.20
2023-03-15T06:57:10.913Z,1.40
2023-03-15T06:59:38.978Z,1.50
2023-03-15T07:02:07.292Z,1.50
2023-03-15T07:04:36.725Z,1.40
2023-03-15T07:07:05.102Z,1.50
2023-03-15T07:09:33.156Z,1.60
2023-03-15T07:12:01.178Z,1.60
2023-03-15T07:14:29.260Z,1.60
2023-03-15T07:16:57.299Z,1.50
2023-03-15T07:19:25.366Z,1.60
2023-03-15T07:21:54.754Z,1.70
2023-03-15T07:24:22.934Z,1.60
2023-03-15T07:26:54.788Z,1.60
2023-03-15T07:29:23.353Z,1.80
2023-03-15T07:31:51.607Z,1.80
2023-03-15T07:34:19.739Z,1.70
2023-03-15T07:36:47.855Z,1.80
2023-03-15T07:39:17.626Z,1.80
2023-03-15T07:41:45.656Z,1.90
2023-03-15T07:44:23.579Z,2.10
2023-03-15T07:46:51.634Z,2.00
2023-03-15T07:49:19.710Z,1.90
2023-03-15T07:51:47.851Z,1.90
2023-03-15T07:54:17.373Z,1.90
2023-03-15T07:56:45.398Z,2.10
2023-03-15T07:59:13.668Z,2.10
2023-03-15T08:01:41.719Z,2.10
2023-03-15T08:04:09.994Z,2.00
2023-03-15T08:06:38.057Z,2.10
2023-03-15T08:09:06.843Z,2.10
2023-03-15T08:14:09.236Z,2.10
2023-03-15T08:16:37.322Z,2.10
2023-03-15T08:19:05.674Z,2.10
2023-03-15T08:21:33.970Z,2.30
2023-03-15T08:24:02.413Z,2.30
2023-03-15T08:26:30.452Z,2.50
2023-03-15T08:28:59.857Z,2.50
2023-03-15T08:31:28.066Z,2.60
2023-03-15T08:33:56.208Z,2.60
2023-03-15T08:36:24.274Z,2.90
2023-03-15T08:38:52.373Z,3.20
2023-03-15T08:41:20.475Z,3.20
2023-03-15T08:43:48.684Z,3.20
2023-03-15T08:46:18.196Z,3.10
2023-03-15T08:48:46.280Z,3.00
2023-03-15T08:51:14.874Z,3.00
2023-03-15T08:53:42.944Z,3.10
2023-03-15T08:56:11.020Z,3.30
2023-03-15T08:58:39.054Z,3.30
2023-03-15T09:01:07.262Z,3.40
2023-03-15T09:03:36.643Z,3.60
2023-03-15T09:06:04.796Z,4.00
2023-03-15T09:08:33.566Z,4.30
2023-03-15T09:11:01.721Z,4.60
2023-03-15T09:13:29.857Z,5.40
2023-03-15T09:15:58.369Z,6.10
2023-03-15T09:18:26.470Z,6.20
2023-03-15T09:20:57.696Z,6.00
2023-03-15T09:23:25.982Z,6.00
2023-03-15T09:25:54.049Z,5.70
2023-03-15T09:28:22.240Z,6.40
2023-03-15T09:30:50.327Z,6.20
2023-03-15T09:33:18.441Z,6.80
2023-03-15T09:35:46.519Z,6.60
2023-03-15T09:38:15.928Z,7.30
2023-03-15T09:40:46.185Z,6.90
2023-03-15T09:43:40.918Z,6.60
2023-03-15T09:46:16.704Z,6.50
2023-03-15T09:48:49.620Z,6.50
2023-03-15T09:51:20.261Z,6.60
2023-03-15T09:53:52.352Z,6.60
2023-03-15T09:56:23.797Z,6.30
2023-03-15T09:58:52.945Z,6.60
2023-03-15T10:01:22.790Z,6.60
2023-03-15T10:03:51.647Z,6.50
2023-03-15T10:06:22.933Z,6.60
2023-03-15T10:08:52.775Z,6.50
2023-03-15T10:11:23.970Z,7.50
2023-03-15T10:14:00.627Z,7.70
2023-03-15T10:16:33.663Z,8.10
2023-03-15T10:19:06.880Z,8.00
2023-03-15T10:21:39.674Z,7.90
2023-03-15T10:24:11.623Z,7.50
2023-03-15T10:26:39.705Z,7.30
2023-03-15T10:29:13.220Z,7.60
2023-03-15T10:31:44.863Z,8.50
2023-03-15T10:34:13.208Z,7.80
2023-03-15T10:36:45.607Z,7.80
2023-03-15T10:39:15.373Z,8.50
2023-03-15T10:41:45.700Z,8.40
2023-03-15T10:44:15.136Z,8.70
2023-03-15T10:46:43.256Z,9.30
2023-03-15T10:49:13.112Z,9.40
2023-03-15T10:51:43.497Z,9.20
2023-03-15T10:54:17.097Z,8.30
2023-03-15T10:56:47.241Z,9.00
2023-03-15T10:59:20.009Z,9.00
2023-03-15T11:01:49.309Z,8.70
2023-03-15T11:04:19.413Z,8.70
2023-03-15T11:06:49.566Z,7.60
2023-03-15T11:09:20.276Z,7.60
2023-03-15T11:11:58.370Z,7.60
2023-03-15T11:14:27.189Z,7.50
2023-03-15T11:16:56.331Z,8.50
2023-03-15T11:19:26.734Z,8.80
2023-03-15T11:21:54.901Z,9.20
2023-03-15T11:24:26.684Z,9.20
2023-03-15T11:26:55.390Z,9.70
2023-03-15T11:29:25.403Z,9.70
2023-03-15T11:31:53.811Z,9.30
2023-03-15T11:34:26.865Z,8.90
2023-03-15T11:37:07.588Z,9.80
2023-03-15T11:39:40.360Z,10.30
2023-03-15T11:42:11.222Z,9.60
2023-03-15T11:44:40.747Z,9.70
2023-03-15T11:47:12.949Z,10.40
2023-03-15T11:49:44.055Z,9.50
2023-03-15T11:52:12.102Z,9.30
2023-03-15T11:54:41.542Z,8.80
2023-03-15T11:57:41.402Z,8.50
2023-03-15T12:00:51.349Z,8.60
2023-03-15T12:03:35.407Z,9.00
2023-03-15T12:06:11.158Z,8.40
2023-03-15T12:08:44.055Z,8.70
2023-03-15T12:11:12.889Z,9.50
2023-03-15T12:13:51.875Z,10.10
2023-03-15T12:16:22.259Z,10.20
2023-03-15T12:18:50.320Z,8.80
2023-03-15T12:21:20.938Z,9.00
2023-03-15T12:23:57.770Z,9.10
2023-03-15T12:26:42.097Z,9.20
2023-03-15T12:29:18.501Z,8.60
2023-03-15T12:32:08.986Z,7.80
2023-03-15T12:34:43.572Z,6.30
2023-03-15T12:37:15.492Z,4.90
2023-03-15T12:39:45.819Z,4.30
2023-03-15T12:42:52.688Z,4.10
2023-03-15T12:45:37.561Z,3.80
2023-03-15T12:48:25.002Z,3.60
2023-03-15T12:50:55.564Z,3.60
2023-03-15T12:53:27.031Z,3.50
2023-03-15T12:56:06.180Z,3.70
2023-03-15T12:58:37.140Z,3.90
2023-03-15T13:01:07.273Z,4.40
2023-03-15T13:03:35.730Z,4.50
2023-03-15T13:06:06.219Z,4.70
2023-03-15T13:08:37.416Z,5.30
2023-03-15T13:11:11.831Z,5.70
2023-03-15T13:14:02.448Z,5.80
2023-03-15T13:16:36.040Z,6.20
2023-03-15T13:19:14.218Z,6.40
2023-03-15T13:21:49.706Z,6.60
2023-03-15T13:24:21.735Z,6.60
2023-03-15T13:26:53.281Z,6.40
2023-03-15T13:29:23.325Z,6.50
2023-03-15T13:32:01.465Z,7.00
2023-03-15T13:34:30.978Z,7.00
2023-03-15T13:37:00.268Z,7.00
2023-03-15T13:39:29.306Z,7.00
2023-03-15T13:42:00.595Z,6.90
2023-03-15T13:44:28.986Z,7.00
2023-03-15T13:47:00.044Z,7.30
2023-03-15T13:49:31.868Z,7.90
2023-03-15T13:52:00.126Z,8.00
2023-03-15T13:54:28.683Z,8.20
2023-03-15T13:56:59.188Z,7.80
2023-03-15T13:59:29.003Z,8.00
2023-03-15T14:01:58.445Z,8.00
2023-03-15T14:04:26.496Z,8.60
2023-03-15T14:07:04.617Z,8.70
2023-03-15T14:09:32.655Z,8.30
2023-03-15T14:12:04.612Z,8.60
2023-03-15T14:14:33.334Z,8.50
2023-03-15T14:17:08.865Z,8.60
2023-03-15T14:19:37.184Z,8.50
2023-03-15T14:22:06.347Z,8.80
2023-03-15T14:24:36.200Z,8.90
2023-03-15T14:27:07.080Z,8.90
2023-03-15T14:29:35.529Z,9.00
2023-03-15T14:32:06.363Z,9.30
2023-03-15T14:34:35.746Z,8.70
2023-03-15T14:37:05.899Z,7.60
2023-03-15T14:39:39.886Z,5.90
2023-03-15T14:42:08.259Z,4.60
2023-03-15T14:44:36.288Z,4.20
2023-03-15T14:47:08.205Z,4.20
2023-03-15T14:49:36.290Z,4.40
2023-03-15T14:52:05.966Z,4.50
2023-03-15T14:54:34.298Z,4.80
2023-03-15T14:57:02.364Z,5.00
2023-03-15T14:59:30.401Z,5.10
2023-03-15T15:02:00.206Z,5.30
2023-03-15T15:04:33.463Z,5.30
2023-03-15T15:07:03.260Z,5.20
2023-03-15T15:09:32.097Z,5.10
2023-03-15T15:12:00.171Z,5.10
2023-03-15T15:14:28.229Z,5.10
2023-03-15T15:16:56.365Z,5.20
2023-03-15T15:19:24.441Z,5.30
2023-03-15T15:21:53.844Z,5.20
2023-03-15T15:24:22.458Z,5.10
2023-03-15T15:26:50.569Z,5.00
2023-03-15T15:29:18.598Z,5.10
2023-03-15T15:31:46.853Z,5.20
2023-03-15T15:34:14.904Z,5.20
2023-03-15T15:36:43.689Z,5.40
2023-03-15T15:39:17.298Z,5.40
2023-03-15T15:41:45.356Z,5.30
2023-03-15T15:44:16.176Z,5.60
2023-03-15T15:46:44.251Z,5.60
2023-03-15T15:49:12.334Z,5.60
2023-03-15T15:51:42.058Z,5.50
2023-03-15T15:54:15.070Z,5.40
2023-03-15T15:56:45.871Z,5.50
2023-03-15T15:59:14.997Z,5.10
2023-03-15T16:01:59.004Z,5.00
2023-03-15T16:04:28.405Z,5.10
2023-03-15T16:06:57.552Z,5.20
2023-03-15T16:09:26.955Z,5.20
2023-03-15T16:11:55.284Z,5.20
2023-03-15T16:14:23.362Z,4.90
2023-03-15T16:16:51.427Z,5.00
2023-03-15T16:19:19.483Z,5.10
2023-03-15T16:21:48.589Z,5.10
2023-03-15T16:24:18.131Z,5.20
2023-03-15T16:26:47.565Z,5.10
2023-03-15T16:29:17.755Z,5.00
2023-03-15T16:31:45.854Z,4.90
2023-03-15T16:34:14.360Z,4.80
2023-03-15T16:36:43.689Z,4.70
2023-03-15T16:39:12.095Z,4.70
2023-03-15T16:41:40.325Z,4.70
2023-03-15T16:44:13.023Z,4.70
2023-03-15T16:46:41.112Z,4.70
2023-03-15T16:49:09.281Z,4.50
2023-03-15T16:51:37.525Z,4.50
2023-03-15T16:56:53.774Z,4.40
2023-03-15T16:59:23.167Z,4.40
2023-03-15T17:01:51.477Z,4.50
2023-03-15T17:04:19.619Z,4.30
2023-03-15T17:06:47.686Z,4.30
2023-03-15T17:09:17.076Z,4.20
2023-03-15T17:11:45.327Z,4.20
2023-03-15T17:14:16.190Z,4.20
2023-03-15T17:16:45.613Z,4.20
2023-03-15T17:19:13.866Z,4.10
2023-03-15T17:21:41.973Z,4.00
2023-03-15T17:24:10.347Z,4.00
2023-03-15T17:26:38.470Z,3.90
2023-03-15T17:29:06.991Z,3.90
2023-03-15T17:31:35.375Z,4.00
2023-03-15T17:34:04.782Z,3.90
2023-03-15T17:36:34.495Z,3.70
2023-03-15T17:39:03.294Z,3.60
2023-03-15T17:41:32.001Z,3.60
2023-03-15T17:44:00.189Z,3.50
2023-03-15T17:46:30.314Z,3.40
2023-03-15T17:48:59.036Z,3.40
2023-03-15T17:51:30.260Z,3.30
2023-03-15T17:53:59.391Z,3.20
2023-03-15T17:56:27.666Z,3.10
2023-03-15T17:58:55.759Z,3.10
2023-03-15T18:01:24.947Z,3.00
2023-03-15T18:03:53.089Z,3.00
2023-03-15T18:06:21.854Z,3.00
2023-03-15T18:08:51.255Z,2.90
2023-03-15T18:11:22.699Z,2.90
2023-03-15T18:13:50.762Z,2.80
2023-03-15T18:16:18.878Z,2.80
2023-03-15T18:18:47.006Z,2.80
2023-03-15T18:21:15.187Z,2.90
2023-03-15T18:23:43.551Z,3.00
2023-03-15T18:26:13.137Z,3.00
2023-03-15T18:28:41.335Z,3.00
2023-03-15T18:31:12.610Z,3.00
2023-03-15T18:33:40.673Z,3.00
2023-03-15T18:36:08.972Z,2.90
2023-03-15T18:38:37.351Z,2.90
2023-03-15T18:41:05.504Z,2.90
2023-03-15T18:43:34.910Z,3.00
2023-03-15T18:46:02.963Z,2.90
2023-03-15T18:48:40.499Z,2.90
2023-03-15T18:51:12.254Z,2.90
2023-03-15T18:53:40.790Z,2.90
2023-03-15T18:56:13.513Z,3.00
2023-03-15T18:58:42.920Z,2.70
2023-03-15T19:01:11.012Z,2.60
2023-03-15T19:03:39.087Z,2.60
2023-03-15T19:06:07.842Z,2.60
2023-03-15T19:08:35.923Z,2.50
2023-03-15T19:11:04.218Z,2.50
2023-03-15T19:13:32.297Z,2.60
2023-03-15T19:16:02.458Z,2.50
2023-03-15T19:18:32.370Z,2.60
2023-03-15T19:21:00.751Z,2.50
2023-03-15T19:23:28.858Z,2.50
2023-03-15T19:25:56.898Z,2.50
2023-03-15T19:28:26.223Z,2.60
2023-03-15T19:30:54.423Z,2.50
2023-03-15T19:33:23.900Z,2.40
2023-03-15T19:35:52.234Z,2.40
2023-03-15T19:38:20.335Z,2.30
2023-03-15T19:40:48.529Z,2.30
2023-03-15T19:43:18.538Z,2.30
2023-03-15T19:45:46.623Z,2.20
2023-03-15T19:48:16.480Z,2.00
2023-03-15T19:50:46.015Z,2.00
2023-03-15T19:53:14.094Z,2.00
2023-03-15T19:55:42.141Z,1.90
2023-03-15T19:58:10.240Z,1.90
2023-03-15T20:00:38.245Z,1.90
2023-03-15T20:03:06.335Z,1.90
2023-03-15T20:05:35.193Z,1.90
2023-03-15T20:08:04.692Z,1.90
2023-03-15T20:10:32.729Z,1.90
2023-03-15T20:13:00.783Z,1.90
2023-03-15T20:15:29.510Z,1.90
2023-03-15T20:17:57.706Z,1.90
2023-03-15T20:20:25.755Z,1.90
2023-03-15T20:22:53.826Z,1.90
2023-03-15T20:25:23.258Z,1.80
2023-03-15T20:27:51.360Z,1.80
2023-03-15T20:30:21.146Z,1.80
2023-03-15T20:32:49.501Z,1.70
2023-03-15T20:35:17.742Z,1.70
2023-03-15T20:37:45.797Z,1.70
2023-03-15T20:40:14.636Z,1.70
2023-03-15T20:42:44.352Z,1.80
2023-03-15T20:45:13.681Z,1.80
2023-03-15T20:47:42.151Z,1.70
2023-03-15T20:50:11.071Z,1.70
2023-03-15T20:52:39.196Z,1.70
2023-03-15T20:55:08.185Z,1.60
2023-03-15T20:57:36.528Z,1.60
2023-03-15T21:00:12.514Z,1.60
2023-03-15T21:02:41.269Z,1.60
2023-03-15T21:05:09.900Z,1.60
2023-03-15T21:07:37.998Z,1.60
2023-03-15T21:10:06.877Z,1.50
2023-03-15T21:12:34.951Z,1.50
2023-03-15T21:15:03.167Z,1.50
2023-03-15T21:17:32.612Z,1.50
2023-03-15T21:20:00.882Z,1.60
2023-03-15T21:22:29.035Z,1.50
2023-03-15T21:24:57.088Z,1.50
2023-03-15T21:27:26.493Z,1.50
2023-03-15T21:29:54.637Z,1.40
2023-03-15T21:32:22.823Z,1.40
2023-03-15T21:34:52.360Z,1.40
2023-03-15T21:37:20.431Z,1.30
2023-03-15T21:39:48.530Z,1.20
2023-03-15T21:42:16.638Z,1.20
2023-03-15T21:44:44.691Z,1.20
2023-03-15T21:47:14.592Z,1.20
2023-03-15T21:49:44.777Z,1.10
2023-03-15T21:52:16.283Z,1.10
2023-03-15T21:54:44.975Z,1.00
2023-03-15T21:57:13.715Z,1.00
2023-03-15T21:59:41.813Z,1.00
2023-03-15T22:02:14.254Z,1.00
2023-03-15T22:04:42.833Z,1.00
2023-03-15T22:07:11.100Z,0.90
2023-03-15T22:09:41.925Z,0.90
2023-03-15T22:12:10.450Z,0.90
2023-03-15T22:14:38.599Z,0.80
2023-03-15T22:17:06.831Z,0.80
2023-03-15T22:19:35.073Z,0.70
2023-03-15T22:22:03.111Z,0.70
2023-03-15T22:24:34.101Z,0.60
2023-03-15T22:27:03.553Z,0.60
2023-03-15T22:29:31.626Z,0.60
2023-03-15T22:31:59.660Z,0.60
2023-03-15T22:34:27.724Z,0.50
2023-03-15T22:36:55.762Z,0.50
2023-03-15T22:39:23.798Z,0.50
2023-03-15T22:41:51.839Z,0.50
2023-03-15T22:44:21.247Z,0.40
2023-03-15T22:46:49.404Z,0.30
2023-03-15T22:49:17.522Z,0.40
2023-03-15T22:51:45.594Z,0.30
2023-03-15T22:54:13.657Z,0.30
2023-03-15T22:56:41.696Z,0.30
2023-03-15T22:59:09.769Z,0.20
2023-03-15T23:01:39.256Z,0.20
2023-03-15T23:04:07.490Z,0.20
2023-03-15T23:06:35.570Z,0.20
2023-03-15T23:09:05.542Z,0.20
2023-03-15T23:11:34.567Z,0.20
2023-03-15T23:14:02.630Z,0.10
2023-03-15T23:16:31.955Z,0.20
2023-03-15T23:19:03.132Z,0.10
2023-03-15T23:21:31.179Z,0.20
2023-03-15T23:23:59.283Z,0.20
2023-03-15T23:26:27.420Z,0.10
2023-03-15T23:28:55.546Z,0.10
2023-03-15T23:31:23.657Z,0.10
2023-03-15T23:33:51.746Z,0.10
2023-03-15T23:36:21.145Z,0.10
2023-03-15T23:38:49.202Z,0.10
2023-03-15T23:41:17.226Z,0.00
2023-03-15T23:43:45.282Z,0.10
2023-03-15T23:46:14.562Z,0.10
2023-03-15T23:48:42.750Z,0.10
2023-03-15T23:51:12.671Z,0.00
2023-03-15T23:53:42.109Z,0.00
2023-03-15T23:56:10.413Z,0.10
2023-03-15T23:58:38.897Z,0.10
